Time;durP1;ratioP1;P1;durP2;ratioP2;P2;SDS_P1;SDS_P2;PMS_P1;PMS_P2;Temp;Humidity;BMP_temperature;BMP_pressure;BME280_temperature;BME280_humidity;BME280_pressure;Samples;Min_cycle;Max_cycle;Signal;HPM_P1;HPM_P2
2022/02/21 08:30:50;;;;;;;28.52;5.50;;;7.00;79.60;;;;;;5049738;28;20409;-50
2022/02/21 08:33:17;;;;;;;26.10;5.22;;;7.00;79.40;;;;;;5030857;28;20051;-50
2022/02/21 08:35:44;;;;;;;20.90;4.45;;;7.20;79.10;;;;;;5031400;28;20042;-51
2022/02/21 08:38:10;;;;;;;28.25;5.45;;;7.20;78.80;;;;;;5031012;28;20080;-48
2022/02/21 08:40:38;;;;;;;30.05;5.25;;;7.30;78.70;;;;;;5030350;28;20064;-47
2022/02/21 08:43:05;;;;;;;33.50;6.28;;;7.30;78.70;;;;;;5031884;28;20053;-48
2022/02/21 08:45:32;;;;;;;26.08;5.05;;;7.40;78.20;;;;;;5031169;28;20068;-52
2022/02/21 08:47:59;;;;;;;24.92;5.47;;;7.50;78.10;;;;;;5030448;28;20060;-48
2022/02/21 08:50:25;;;;;;;30.23;5.65;;;7.50;77.70;;;;;;5030163;28;20492;-46
2022/02/21 08:52:52;;;;;;;25.08;6.18;;;7.60;77.30;;;;;;5031321;28;20046;-49
2022/02/21 08:55:19;;;;;;;29.10;5.88;;;7.60;77.50;;;;;;5030178;28;20041;-50
2022/02/21 08:57:46;;;;;;;27.80;5.13;;;7.70;78.00;;;;;;5030247;28;20484;-49
2022/02/21 09:00:13;;;;;;;25.75;5.57;;;7.70;77.10;;;;;;5031601;28;20104;-51
2022/02/21 09:02:39;;;;;;;32.35;6.40;;;7.80;77.10;;;;;;5029800;28;20072;-49
2022/02/21 09:05:26;;;;;;;26.33;5.65;;;7.90;77.50;;;;;;5030111;28;20378;-49
2022/02/21 09:07:53;;;;;;;23.63;5.43;;;8.00;76.80;;;;;;5030142;28;20076;-51
2022/02/21 09:10:20;;;;;;;26.67;5.32;;;8.00;76.90;;;;;;5029815;28;20042;-53
2022/02/21 09:12:46;;;;;;;22.20;4.90;;;8.00;76.10;;;;;;5023568;28;20092;-52
2022/02/21 09:15:17;;;;;;;27.33;5.53;;;8.10;75.90;;;;;;5029946;28;20042;-52
2022/02/21 09:17:44;;;;;;;26.83;5.55;;;8.10;76.30;;;;;;5029791;28;20073;-51
2022/02/21 09:20:11;;;;;;;32.35;7.18;;;8.10;76.10;;;;;;5029778;28;20088;-50
2022/02/21 09:22:38;;;;;;;27.02;6.10;;;8.10;76.40;;;;;;5023398;28;20496;-54
2022/02/21 09:25:04;;;;;;;25.02;5.65;;;8.10;76.20;;;;;;5029843;28;20034;-48
2022/02/21 09:27:31;;;;;;;22.98;5.43;;;8.10;75.90;;;;;;5034594;28;20469;-55
2022/02/21 09:30:02;;;;;;;29.13;6.97;;;8.20;76.10;;;;;;5029503;28;20168;-52
2022/02/21 09:32:30;;;;;;;23.15;5.85;;;8.20;76.60;;;;;;5023190;28;20053;-48
2022/02/21 09:34:56;;;;;;;22.20;5.07;;;8.20;76.00;;;;;;5023012;28;20547;-53
2022/02/21 09:37:24;;;;;;;24.65;5.50;;;8.30;75.80;;;;;;5029713;28;20500;-49
2022/02/21 09:39:51;;;;;;;24.27;4.50;;;8.40;76.00;;;;;;5030269;28;20404;-48
2022/02/21 09:42:17;;;;;;;19.77;4.63;;;8.40;75.60;;;;;;5015702;28;20046;-48
2022/02/21 09:44:46;;;;;;;25.83;5.32;;;8.50;75.20;;;;;;5017429;28;20099;-47
2022/02/21 09:47:13;;;;;;;21.85;4.80;;;8.50;75.70;;;;;;5016612;28;20119;-50
2022/02/21 09:49:39;;;;;;;22.58;5.00;;;8.50;75.90;;;;;;5015949;28;20485;-49
2022/02/21 09:52:06;;;;;;;21.60;4.65;;;8.60;75.30;;;;;;5016031;28;20042;-49
2022/02/21 09:54:33;;;;;;;21.67;4.38;;;8.60;75.10;;;;;;5016116;28;20049;-49
2022/02/21 09:57:00;;;;;;;21.00;4.78;;;8.70;75.40;;;;;;5015956;28;20074;-47
2022/02/21 09:59:27;;;;;;;18.67;5.00;;;8.70;75.00;;;;;;5015787;28;20042;-49
2022/02/21 10:01:54;;;;;;;19.83;4.70;;;8.70;75.20;;;;;;5016030;28;20046;-45
2022/02/21 10:04:21;;;;;;;18.50;4.28;;;8.80;74.90;;;;;;5016124;28;20049;-48
2022/02/21 10:06:47;;;;;;;21.17;4.60;;;8.80;75.00;;;;;;5015685;28;20374;-52
2022/02/21 10:09:15;;;;;;;19.20;4.18;;;8.90;75.20;;;;;;5015849;28;20045;-49
2022/02/21 10:11:42;;;;;;;17.23;4.03;;;9.00;74.70;;;;;;5015845;28;20038;-48
2022/02/21 10:14:08;;;;;;;18.67;4.50;;;9.10;74.20;;;;;;5019026;28;20556;-50
2022/02/21 10:16:35;;;;;;;23.48;4.95;;;9.20;74.60;;;;;;5015425;28;20049;-51
2022/02/21 10:19:02;;;;;;;20.60;5.10;;;9.20;73.50;;;;;;5015434;28;20045;-47
2022/02/21 10:21:30;;;;;;;19.70;4.85;;;9.20;74.60;;;;;;5015605;28;20034;-51
2022/02/21 10:23:57;;;;;;;21.55;5.38;;;9.20;74.40;;;;;;5015403;28;20038;-52
2022/02/21 10:26:24;;;;;;;18.27;5.25;;;9.20;73.80;;;;;;5015507;28;20069;-54
2022/02/21 10:28:51;;;;;;;16.58;4.45;;;9.20;74.70;;;;;;5015928;28;20060;-53
2022/02/21 10:31:19;;;;;;;22.27;5.03;;;9.20;74.40;;;;;;5015446;28;20484;-52
2022/02/21 10:33:46;;;;;;;19.95;4.35;;;9.20;74.30;;;;;;5015931;28;20447;-50
2022/02/21 10:36:13;;;;;;;21.27;5.40;;;9.20;74.10;;;;;;5017696;28;20109;-50
2022/02/21 10:38:40;;;;;;;19.88;4.18;;;9.20;74.50;;;;;;5015123;28;20061;-50
2022/02/21 10:41:08;;;;;;;22.95;4.93;;;9.20;75.20;;;;;;5015206;28;20060;-49
2022/02/21 10:43:34;;;;;;;23.52;5.13;;;9.20;75.20;;;;;;5015145;28;20496;-52
2022/02/21 10:46:01;;;;;;;16.92;4.50;;;9.20;74.80;;;;;;5015039;28;20550;-53
2022/02/21 10:48:28;;;;;;;18.58;4.03;;;9.20;75.30;;;;;;5015035;28;20072;-52
2022/02/21 10:50:54;;;;;;;17.38;4.03;;;9.20;74.30;;;;;;5014777;28;20042;-54
2022/02/21 10:53:23;;;;;;;15.48;3.90;;;9.20;75.00;;;;;;5019420;28;20033;-47
2022/02/21 10:55:50;;;;;;;20.90;4.50;;;9.30;74.60;;;;;;5014743;28;20046;-49
2022/02/21 10:58:17;;;;;;;16.42;4.47;;;9.30;75.10;;;;;;5015160;28;20049;-52
2022/02/21 11:00:44;;;;;;;16.95;3.88;;;9.30;75.00;;;;;;5014892;28;20057;-51
2022/02/21 11:03:11;;;;;;;17.77;4.43;;;9.30;74.80;;;;;;5014963;28;20124;-51
2022/02/21 11:05:38;;;;;;;16.55;4.07;;;9.40;75.20;;;;;;5014814;28;20077;-49
2022/02/21 11:08:06;;;;;;;20.08;4.32;;;9.40;75.30;;;;;;5014648;28;20042;-53
2022/02/21 11:10:33;;;;;;;16.67;3.63;;;9.40;75.30;;;;;;5014536;28;20045;-50
2022/02/21 11:13:00;;;;;;;17.70;4.18;;;9.50;75.10;;;;;;5014617;28;20038;-50
2022/02/21 11:15:26;;;;;;;14.43;4.18;;;9.50;75.40;;;;;;5014537;28;20085;-50
2022/02/21 11:17:57;;;;;;;20.38;4.55;;;9.50;75.50;;;;;;5014517;28;20052;-50
2022/02/21 11:20:24;;;;;;;13.38;3.63;;;9.50;75.30;;;;;;5014297;28;20084;-49
2022/02/21 11:22:51;;;;;;;16.50;3.78;;;9.60;75.60;;;;;;5014379;28;20049;-51
2022/02/21 11:25:17;;;;;;;15.63;3.50;;;9.60;75.30;;;;;;5014511;28;20409;-48
2022/02/21 11:27:44;;;;;;;14.45;3.90;;;9.70;76.10;;;;;;5014476;28;20439;-50
2022/02/21 11:30:11;;;;;;;19.42;4.60;;;9.70;75.90;;;;;;5018824;28;20112;-49
2022/02/21 11:32:43;;;;;;;15.93;3.95;;;9.70;75.70;;;;;;5014279;28;20042;-50
2022/02/21 11:35:10;;;;;;;15.95;3.80;;;9.70;75.70;;;;;;5014268;28;20041;-50
2022/02/21 11:37:37;;;;;;;14.02;4.13;;;9.70;75.80;;;;;;5014181;28;20547;-51
2022/02/21 11:40:03;;;;;;;16.40;4.30;;;9.80;76.30;;;;;;5013995;28;20058;-51
2022/02/21 11:42:48;;;;;;;19.05;4.25;;;9.80;76.20;;;;;;5014126;28;20408;-48
2022/02/21 11:45:16;;;;;;;17.58;4.43;;;9.80;75.80;;;;;;5013979;28;20049;-48
2022/02/21 11:47:43;;;;;;;15.30;3.88;;;9.80;75.90;;;;;;5014087;28;20465;-51
2022/02/21 11:50:10;;;;;;;15.35;3.75;;;9.80;76.10;;;;;;5014044;28;20445;-53
2022/02/21 11:52:37;;;;;;;13.48;3.90;;;9.90;75.80;;;;;;5014219;28;20118;-50
2022/02/21 11:55:03;;;;;;;18.10;4.43;;;9.90;76.40;;;;;;5013859;28;20042;-50
2022/02/21 11:57:30;;;;;;;17.83;4.13;;;10.00;76.40;;;;;;5014009;28;20095;-48
2022/02/21 12:00:01;;;;;;;20.60;4.38;;;10.00;76.10;;;;;;5013634;28;20552;-49
2022/02/21 12:02:37;;;;;;;19.75;4.20;;;10.00;76.30;;;;;;5014673;28;20060;-53
2022/02/21 12:05:04;;;;;;;17.10;4.30;;;10.00;76.40;;;;;;5014534;28;20049;-49
2022/02/21 12:07:36;;;;;;;17.67;4.03;;;10.00;76.20;;;;;;5013717;28;20405;-53
2022/02/21 12:10:03;;;;;;;18.60;3.67;;;10.10;76.20;;;;;;5013340;28;20468;-50
2022/02/21 12:12:30;;;;;;;15.20;3.58;;;10.10;76.30;;;;;;5013599;28;20100;-52
2022/02/21 12:15:03;;;;;;;16.40;4.38;;;10.00;76.30;;;;;;5013894;28;20041;-50
2022/02/21 12:17:30;;;;;;;14.13;3.38;;;10.00;76.60;;;;;;5013629;28;20408;-48
2022/02/21 12:19:56;;;;;;;16.80;3.97;;;10.00;77.00;;;;;;5012876;28;20508;-51
2022/02/21 12:22:26;;;;;;;11.45;3.30;;;10.00;77.10;;;;;;5012788;28;20049;-51
2022/02/21 12:24:53;;;;;;;14.13;3.33;;;10.00;76.50;;;;;;5013106;28;20065;-50
2022/02/21 12:27:21;;;;;;;16.38;3.80;;;10.10;77.00;;;;;;5016980;28;20038;-48
2022/02/21 12:29:48;;;;;;;13.80;3.25;;;10.10;77.00;;;;;;5013286;28;20054;-53
2022/02/21 12:32:16;;;;;;;14.00;3.50;;;10.20;76.80;;;;;;5018062;28;20484;-48
2022/02/21 12:34:43;;;;;;;13.57;3.72;;;10.20;76.50;;;;;;5013760;28;20042;-48
2022/02/21 12:37:10;;;;;;;15.43;3.78;;;10.20;76.80;;;;;;5017086;28;20095;-53
2022/02/21 12:39:37;;;;;;;15.15;3.60;;;10.20;76.80;;;;;;5013891;28;20540;-52
2022/02/21 12:42:03;;;;;;;13.10;3.28;;;10.20;77.50;;;;;;5013201;28;20078;-52
2022/02/21 12:44:30;;;;;;;17.15;3.30;;;10.10;79.30;;;;;;5016895;28;20046;-49
2022/02/21 12:47:00;;;;;;;15.65;4.05;;;10.00;80.50;;;;;;5013372;28;20041;-49
2022/02/21 12:49:26;;;;;;;10.32;2.55;;;9.90;84.60;;;;;;5018058;28;20128;-52
2022/02/21 12:51:55;;;;;;;10.75;2.72;;;9.70;84.10;;;;;;5012937;28;20173;-53
2022/02/21 12:54:22;;;;;;;14.20;3.13;;;9.80;80.50;;;;;;5013165;28;20053;-54
2022/02/21 12:56:49;;;;;;;9.88;3.00;;;9.90;81.20;;;;;;5013101;28;20493;-54
2022/02/21 12:59:16;;;;;;;12.52;2.65;;;10.00;80.90;;;;;;5013374;28;20042;-54
2022/02/21 13:01:43;;;;;;;15.32;3.08;;;10.10;78.00;;;;;;5013192;28;20049;-52
2022/02/21 13:04:09;;;;;;;13.98;3.72;;;10.30;78.70;;;;;;5013376;28;20077;-49
2022/02/21 13:06:39;;;;;;;12.82;3.20;;;10.40;77.20;;;;;;5013030;28;20045;-49
2022/02/21 13:09:06;;;;;;;13.70;3.50;;;10.50;77.90;;;;;;5013101;28;20049;-47
2022/02/21 13:11:33;;;;;;;15.27;3.05;;;10.50;77.50;;;;;;5012963;28;20034;-52
2022/02/21 13:14:20;;;;;;;12.20;3.22;;;10.60;75.90;;;;;;5008005;28;20089;-52
2022/02/21 13:16:47;;;;;;;9.75;2.70;;;10.60;75.70;;;;;;5015232;28;20038;-55
2022/02/21 13:19:13;;;;;;;18.05;3.58;;;10.70;73.50;;;;;;5016932;28;20042;-50
2022/02/21 13:21:40;;;;;;;9.88;2.75;;;10.90;73.50;;;;;;5016861;28;20073;-51
2022/02/21 13:24:11;;;;;;;12.85;3.28;;;11.00;73.10;;;;;;5016764;28;20104;-52
2022/02/21 13:26:38;;;;;;;15.68;3.70;;;11.00;72.90;;;;;;5016841;28;20046;-48
2022/02/21 13:29:05;;;;;;;16.25;4.10;;;11.00;71.20;;;;;;5016353;28;20382;-49
2022/02/21 13:31:41;;;;;;;12.02;3.92;;;11.10;70.80;;;;;;5016480;28;20504;-50
2022/02/21 13:34:07;;;;;;;12.68;2.90;;;11.20;72.10;;;;;;5020105;28;20041;-51
2022/02/21 13:36:34;;;;;;;12.80;2.90;;;11.30;71.10;;;;;;5015239;28;20107;-50
2022/02/21 13:39:03;;;;;;;9.60;3.38;;;11.20;71.30;;;;;;5017875;28;20045;-48
2022/02/21 13:41:30;;;;;;;15.75;3.10;;;10.90;72.60;;;;;;5016309;28;20096;-51
2022/02/21 13:44:12;;;;;;;14.13;3.00;;;10.80;73.20;;;;;;5016681;28;20064;-52
2022/02/21 13:46:38;;;;;;;11.10;3.13;;;10.70;73.40;;;;;;5019111;28;20128;-51
2022/02/21 13:49:05;;;;;;;17.02;3.80;;;10.70;74.60;;;;;;5016080;28;20038;-52
2022/02/21 13:51:32;;;;;;;13.95;3.80;;;10.60;75.00;;;;;;5018038;28;20048;-53
2022/02/21 13:53:59;;;;;;;14.82;3.30;;;10.50;75.50;;;;;;5016078;28;20049;-52
2022/02/21 13:56:26;;;;;;;15.70;3.50;;;10.60;75.00;;;;;;5015908;28;20046;-51
2022/02/21 13:58:53;;;;;;;10.57;2.80;;;10.60;74.90;;;;;;5015814;28;20045;-50
2022/02/21 14:01:21;;;;;;;14.73;3.22;;;10.60;75.90;;;;;;5016035;28;20041;-49
2022/02/21 14:03:48;;;;;;;15.70;4.85;;;10.50;76.10;;;;;;5016132;28;21115;-49
2022/02/21 14:06:15;;;;;;;16.95;3.55;;;10.40;76.70;;;;;;5015956;28;20076;-54
2022/02/21 14:08:41;;;;;;;14.63;3.50;;;10.30;78.20;;;;;;5016009;28;20049;-49
2022/02/21 14:11:19;;;;;;;21.50;4.25;;;10.30;78.50;;;;;;5015816;28;20061;-51
2022/02/21 14:13:46;;;;;;;15.32;3.72;;;10.30;78.10;;;;;;5017843;28;20053;-50
2022/02/21 14:16:13;;;;;;;16.85;4.50;;;10.30;80.10;;;;;;5015723;28;20432;-48
2022/02/21 14:18:40;;;;;;;17.60;4.40;;;10.00;85.30;;;;;;5015527;28;20054;-49
2022/02/21 14:21:07;;;;;;;19.88;4.65;;;9.60;87.20;;;;;;5014499;28;20139;-50
2022/02/21 14:23:33;;;;;;;19.80;4.45;;;9.30;88.60;;;;;;5015515;28;20050;-53
2022/02/21 14:26:00;;;;;;;13.07;3.90;;;9.10;89.30;;;;;;5015488;28;20393;-51
2022/02/21 14:28:27;;;;;;;17.48;4.57;;;8.90;90.70;;;;;;5015362;28;20049;-50
2022/02/21 14:30:54;;;;;;;20.10;4.13;;;8.80;91.10;;;;;;5016942;28;20136;-49
2022/02/21 14:33:20;;;;;;;18.80;4.57;;;8.80;91.60;;;;;;5014392;28;20447;-51
2022/02/21 14:35:47;;;;;;;19.67;4.45;;;8.80;92.10;;;;;;5015161;28;20046;-50
2022/02/21 14:38:16;;;;;;;17.85;4.25;;;8.80;92.30;;;;;;5015320;28;20038;-45
2022/02/21 14:40:43;;;;;;;14.38;3.97;;;8.70;92.00;;;;;;5020981;28;20060;-49
2022/02/21 14:43:10;;;;;;;17.30;4.25;;;8.80;92.00;;;;;;5015350;28;20038;-50
2022/02/21 14:45:36;;;;;;;15.00;3.63;;;8.90;90.70;;;;;;5019845;28;20124;-54
2022/02/21 14:48:03;;;;;;;14.73;3.50;;;9.00;90.70;;;;;;5015014;28;20096;-49
2022/02/21 14:50:30;;;;;;;16.05;3.30;;;9.20;90.40;;;;;;5018555;28;20044;-48
2022/02/21 14:52:57;;;;;;;18.40;4.43;;;9.30;90.10;;;;;;5014930;28;20080;-52
2022/02/21 14:55:23;;;;;;;23.35;4.68;;;9.50;89.60;;;;;;5017340;28;20038;-51
2022/02/21 14:57:52;;;;;;;27.40;5.93;;;9.50;88.40;;;;;;5014877;28;20034;-53
2022/02/21 15:00:20;;;;;;;18.75;5.85;;;9.60;88.00;;;;;;5014644;28;20049;-54
2022/02/21 15:02:47;;;;;;;14.65;5.22;;;9.60;86.80;;;;;;5018559;28;20037;-49
2022/02/21 15:05:14;;;;;;;19.63;5.70;;;9.60;87.60;;;;;;5014769;28;20042;-49
2022/02/21 15:07:40;;;;;;;18.65;4.70;;;9.60;85.50;;;;;;5014870;28;20038;-51
2022/02/21 15:10:07;;;;;;;22.95;5.82;;;9.70;86.00;;;;;;5014410;28;20053;-53
2022/02/21 15:12:34;;;;;;;19.17;4.93;;;9.70;85.10;;;;;;5009276;28;20069;-47
2022/02/21 15:15:01;;;;;;;24.45;8.40;;;9.70;86.10;;;;;;5014791;28;20066;-44
2022/02/21 15:17:27;;;;;;;25.20;7.95;;;9.80;84.50;;;;;;5016769;28;20037;-50
2022/02/21 15:19:54;;;;;;;20.30;4.28;;;9.80;83.80;;;;;;5014079;28;20045;-46
2022/02/21 15:22:21;;;;;;;23.27;5.00;;;9.80;82.20;;;;;;5014381;28;20088;-43
2022/02/21 15:24:48;;;;;;;18.42;5.20;;;9.90;82.90;;;;;;5014208;28;20041;-45
2022/02/21 15:27:14;;;;;;;24.92;7.32;;;10.00;83.80;;;;;;5013864;28;20062;-39
2022/02/21 15:29:41;;;;;;;16.45;4.43;;;10.00;80.90;;;;;;5013922;28;20045;-39
2022/02/21 15:32:09;;;;;;;17.13;4.10;;;10.00;77.60;;;;;;5017511;28;20034;-45
2022/02/21 15:34:36;;;;;;;16.88;3.60;;;10.20;75.80;;;;;;5013554;28;20057;-46
2022/02/21 15:37:02;;;;;;;16.75;3.85;;;10.20;76.50;;;;;;5011403;28;20034;-45
2022/02/21 15:39:30;;;;;;;17.60;4.13;;;10.30;74.40;;;;;;5006918;28;20088;-44
2022/02/21 15:41:57;;;;;;;15.82;4.05;;;10.30;73.60;;;;;;5010752;28;20046;-48
2022/02/21 15:44:23;;;;;;;17.58;4.00;;;10.30;72.30;;;;;;5013710;28;20101;-46
2022/02/21 15:46:50;;;;;;;20.35;4.82;;;10.40;72.90;;;;;;5010986;28;20145;-46
2022/02/21 15:49:17;;;;;;;22.27;4.47;;;10.40;70.80;;;;;;5013050;28;20400;-45
2022/02/21 15:51:44;;;;;;;12.77;3.65;;;10.40;70.50;;;;;;5018487;28;20072;-45
2022/02/21 15:54:11;;;;;;;19.50;4.50;;;10.40;72.10;;;;;;5007211;28;20042;-42
2022/02/21 15:56:38;;;;;;;20.15;5.18;;;10.40;70.90;;;;;;5012922;28;20046;-46
2022/02/21 15:59:05;;;;;;;18.23;4.55;;;10.40;71.20;;;;;;5013014;28;20041;-46
2022/02/21 16:01:34;;;;;;;21.25;5.22;;;10.40;70.60;;;;;;5013302;28;20049;-44
2022/02/21 16:04:00;;;;;;;17.52;4.85;;;10.40;71.10;;;;;;5013447;28;20046;-46
2022/02/21 16:06:27;;;;;;;17.58;4.43;;;10.40;71.30;;;;;;5008506;28;20044;-47
2022/02/21 16:08:54;;;;;;;14.07;3.78;;;10.40;71.70;;;;;;5013317;28;20088;-46
2022/02/21 16:11:21;;;;;;;18.25;4.47;;;10.40;71.50;;;;;;5013166;28;20473;-47
2022/02/21 16:13:47;;;;;;;20.25;5.13;;;10.40;70.40;;;;;;5011345;28;20034;-48
2022/02/21 16:16:14;;;;;;;18.30;4.65;;;10.40;70.00;;;;;;5012048;28;20038;-47
2022/02/21 16:18:41;;;;;;;16.50;4.30;;;10.40;70.50;;;;;;5013405;28;20038;-49
2022/02/21 16:21:08;;;;;;;14.45;3.85;;;10.40;70.00;;;;;;5013149;28;20046;-44
2022/02/21 16:23:34;;;;;;;19.35;5.00;;;10.40;69.00;;;;;;5012692;28;20053;-50
2022/02/21 16:26:01;;;;;;;21.70;5.25;;;10.40;68.90;;;;;;5013126;28;20050;-47
2022/02/21 16:28:28;;;;;;;14.55;3.70;;;10.40;69.10;;;;;;5013037;28;20045;-44
2022/02/21 16:30:55;;;;;;;17.48;4.15;;;10.40;68.30;;;;;;5014077;28;20058;-43
2022/02/21 16:33:22;;;;;;;15.38;3.70;;;10.40;68.10;;;;;;5013147;28;20061;-48
2022/02/21 16:35:49;;;;;;;21.80;4.20;;;10.40;67.80;;;;;;5013098;28;20469;-49
2022/02/21 16:38:16;;;;;;;21.63;3.83;;;10.40;67.80;;;;;;5013129;28;20041;-48
2022/02/21 16:40:43;;;;;;;20.27;4.38;;;10.40;68.40;;;;;;5012955;28;20033;-44
2022/02/21 16:43:10;;;;;;;17.15;5.30;;;10.40;68.40;;;;;;5017144;28;20060;-51
2022/02/21 16:45:37;;;;;;;16.33;4.40;;;10.30;67.80;;;;;;5013043;28;20042;-44
2022/02/21 16:48:05;;;;;;;19.23;4.47;;;10.40;68.20;;;;;;5013005;28;20046;-48
2022/02/21 16:50:32;;;;;;;20.45;5.00;;;10.30;68.00;;;;;;5013218;28;20539;-45
2022/02/21 16:52:59;;;;;;;15.43;3.90;;;10.30;68.30;;;;;;5016116;28;20503;-43
2022/02/21 16:55:26;;;;;;;16.05;4.10;;;10.30;68.80;;;;;;5016784;28;20401;-44
2022/02/21 16:57:52;;;;;;;19.50;4.85;;;10.30;69.00;;;;;;5015655;28;20077;-45
2022/02/21 17:00:20;;;;;;;18.92;4.50;;;10.30;68.30;;;;;;5016671;28;20041;-46
2022/02/21 17:02:47;;;;;;;20.15;4.22;;;10.30;68.30;;;;;;5016735;28;20060;-45
2022/02/21 17:05:14;;;;;;;18.70;4.30;;;10.30;68.70;;;;;;5016750;28;20072;-49
2022/02/21 17:07:41;;;;;;;20.98;3.70;;;10.30;68.50;;;;;;5016777;28;20493;-43
2022/02/21 17:10:08;;;;;;;16.50;3.80;;;10.30;68.40;;;;;;5016669;28;20107;-47
2022/02/21 17:12:34;;;;;;;22.77;4.18;;;10.30;67.90;;;;;;5015956;28;20413;-49
2022/02/21 17:15:01;;;;;;;17.27;4.07;;;10.20;68.20;;;;;;5016538;28;20034;-48
2022/02/21 17:17:28;;;;;;;18.10;3.50;;;10.30;68.40;;;;;;5031398;28;20053;-50
2022/02/21 17:19:54;;;;;;;21.08;4.20;;;10.20;68.10;;;;;;5016330;28;20038;-46
2022/02/21 17:22:21;;;;;;;23.27;5.13;;;10.20;68.50;;;;;;5015629;28;20111;-48
2022/02/21 17:24:48;;;;;;;21.45;4.60;;;10.20;69.30;;;;;;5008723;28;20400;-46
2022/02/21 17:27:17;;;;;;;17.73;4.25;;;10.20;68.60;;;;;;5016028;28;20068;-48
2022/02/21 17:29:44;;;;;;;21.15;5.30;;;10.20;69.00;;;;;;5016202;28;20478;-47
2022/02/21 17:32:10;;;;;;;21.20;4.43;;;10.20;69.00;;;;;;5015757;28;20110;-46
2022/02/21 17:34:38;;;;;;;21.15;4.30;;;10.20;69.50;;;;;;5017067;28;20401;-47
2022/02/21 17:37:09;;;;;;;18.92;4.55;;;10.20;69.10;;;;;;5014139;28;20082;-43
2022/02/21 17:39:36;;;;;;;19.50;5.10;;;10.10;69.00;;;;;;5015609;28;20120;-47
2022/02/21 17:42:02;;;;;;;20.33;4.20;;;10.10;68.60;;;;;;5017940;28;20394;-44
2022/02/21 17:44:30;;;;;;;20.52;4.35;;;10.10;68.90;;;;;;5019257;28;20374;-48
2022/02/21 17:46:58;;;;;;;19.33;4.50;;;10.10;69.00;;;;;;5015698;28;20046;-44
2022/02/21 17:49:25;;;;;;;19.80;4.47;;;10.10;68.70;;;;;;5015817;28;20445;-51
2022/02/21 17:51:52;;;;;;;16.25;4.18;;;10.10;69.20;;;;;;5014427;28;20049;-48
2022/02/21 17:54:19;;;;;;;27.85;5.25;;;10.10;68.60;;;;;;5021360;28;20523;-48
2022/02/21 17:56:46;;;;;;;21.10;5.65;;;10.10;68.60;;;;;;5015686;28;20504;-42
2022/02/21 17:59:13;;;;;;;19.42;4.35;;;10.10;68.90;;;;;;5015640;28;20495;-43
2022/02/21 18:01:40;;;;;;;27.50;5.18;;;10.10;69.10;;;;;;5015435;28;20132;-47
2022/02/21 18:04:06;;;;;;;21.23;5.10;;;10.00;68.70;;;;;;5018124;28;20037;-48
2022/02/21 18:06:33;;;;;;;26.80;4.53;;;10.00;68.40;;;;;;5016648;28;20045;-48
2022/02/21 18:09:02;;;;;;;22.52;5.07;;;9.90;68.20;;;;;;5030585;28;20037;-43
2022/02/21 18:11:29;;;;;;;16.27;4.07;;;9.90;68.50;;;;;;5015355;28;20038;-45
2022/02/21 18:13:55;;;;;;;18.95;4.05;;;9.80;68.80;;;;;;5015641;28;20096;-45
2022/02/21 18:16:24;;;;;;;20.55;4.55;;;9.80;68.80;;;;;;5015185;28;20041;-44
2022/02/21 18:18:51;;;;;;;20.30;5.18;;;9.70;69.40;;;;;;5015165;28;20084;-43
2022/02/21 18:21:19;;;;;;;19.95;4.70;;;9.70;69.60;;;;;;5015238;28;20045;-50
2022/02/21 18:23:45;;;;;;;22.60;4.38;;;9.60;69.60;;;;;;5014733;28;20037;-42
2022/02/21 18:26:15;;;;;;;21.10;4.75;;;9.60;69.60;;;;;;5014185;28;20048;-45
2022/02/21 18:28:42;;;;;;;21.25;4.35;;;9.50;69.90;;;;;;5015069;28;20038;-47
2022/02/21 18:31:09;;;;;;;26.23;6.05;;;9.50;70.20;;;;;;5015744;28;20046;-46
2022/02/21 18:33:36;;;;;;;21.73;3.97;;;9.40;70.20;;;;;;5015078;28;20037;-43
2022/02/21 18:36:02;;;;;;;18.58;4.15;;;9.40;70.10;;;;;;5015150;28;20424;-41
2022/02/21 18:38:31;;;;;;;16.55;3.92;;;9.40;70.60;;;;;;5014777;28;20049;-46
2022/02/21 18:40:58;;;;;;;21.05;4.10;;;9.40;70.50;;;;;;5015648;28;20052;-44
2022/02/21 18:43:24;;;;;;;23.88;4.40;;;9.30;70.70;;;;;;5015092;28;20049;-44
2022/02/21 18:45:51;;;;;;;20.30;4.63;;;9.30;70.50;;;;;;5013884;28;20515;-46
2022/02/21 18:48:18;;;;;;;31.73;9.68;;;9.20;70.90;;;;;;5014890;28;20571;-43
2022/02/21 18:50:44;;;;;;;29.88;9.50;;;9.20;70.80;;;;;;5014896;28;20046;-47
2022/02/21 18:53:12;;;;;;;26.83;7.93;;;9.20;70.90;;;;;;5014340;28;20096;-46
2022/02/21 18:55:40;;;;;;;33.55;12.23;;;9.20;71.30;;;;;;5015123;28;20041;-46
2022/02/21 18:58:07;;;;;;;22.65;7.10;;;9.10;71.50;;;;;;5014867;28;20042;-48
2022/02/21 19:00:35;;;;;;;30.55;8.27;;;9.10;71.70;;;;;;5014752;28;20383;-46
2022/02/21 19:03:03;;;;;;;24.15;6.50;;;9.10;71.60;;;;;;5015841;28;20373;-44
2022/02/21 19:05:31;;;;;;;17.95;5.20;;;9.10;71.60;;;;;;5014623;28;20038;-48
2022/02/21 19:07:57;;;;;;;26.45;6.13;;;9.10;71.90;;;;;;5014805;28;20046;-55
2022/02/21 19:10:24;;;;;;;18.73;4.25;;;9.10;72.00;;;;;;5014336;28;20476;-53
2022/02/21 19:12:51;;;;;;;22.23;5.22;;;9.10;71.70;;;;;;5015407;28;20037;-49
2022/02/21 19:15:18;;;;;;;18.25;4.32;;;9.10;71.70;;;;;;5016821;28;20045;-45
2022/02/21 19:17:45;;;;;;;28.90;5.22;;;9.10;72.00;;;;;;5013560;28;20092;-46
2022/02/21 19:20:12;;;;;;;19.38;4.80;;;9.00;71.90;;;;;;5014717;28;20034;-47
2022/02/21 19:22:39;;;;;;;21.90;5.10;;;9.00;72.00;;;;;;5014429;28;20052;-49
2022/02/21 19:25:05;;;;;;;22.25;4.90;;;9.00;72.10;;;;;;5014554;28;20053;-53
2022/02/21 19:27:36;;;;;;;15.70;3.88;;;8.90;71.50;;;;;;5014673;28;20053;-48
2022/02/21 19:30:03;;;;;;;19.38;4.00;;;8.90;71.70;;;;;;5019007;28;20061;-46
2022/02/21 19:32:30;;;;;;;29.27;5.53;;;8.90;71.70;;;;;;5014175;28;20042;-50
2022/02/21 19:34:57;;;;;;;26.17;5.22;;;8.90;71.40;;;;;;5014491;28;20465;-48
2022/02/21 19:37:23;;;;;;;25.92;6.43;;;8.90;71.30;;;;;;5014276;28;20092;-51
2022/02/21 19:39:50;;;;;;;21.48;4.88;;;8.90;71.10;;;;;;5015104;28;20441;-45
2022/02/21 19:42:17;;;;;;;17.88;4.10;;;8.80;71.10;;;;;;5017639;28;20049;-44
2022/02/21 19:44:43;;;;;;;17.80;4.28;;;8.80;70.90;;;;;;5013730;28;20057;-46
2022/02/21 19:47:10;;;;;;;23.30;4.60;;;8.80;71.20;;;;;;5017606;28;20064;-49
2022/02/21 19:49:37;;;;;;;24.90;5.32;;;8.90;70.90;;;;;;5014019;28;20716;-45
2022/02/21 19:52:04;;;;;;;20.88;4.70;;;8.80;71.30;;;;;;5013786;28;20044;-47
2022/02/21 19:54:30;;;;;;;24.92;5.25;;;8.80;70.80;;;;;;5014052;28;20120;-49
2022/02/21 19:56:57;;;;;;;21.52;4.65;;;8.80;71.00;;;;;;5013867;28;20049;-44
2022/02/21 19:59:24;;;;;;;25.95;5.20;;;8.80;71.10;;;;;;5013720;28;20073;-45
2022/02/21 20:01:52;;;;;;;18.00;4.30;;;8.80;70.90;;;;;;5013911;28;20412;-44
2022/02/21 20:04:19;;;;;;;24.90;5.15;;;8.80;70.80;;;;;;5013723;28;20096;-43
2022/02/21 20:06:45;;;;;;;24.20;5.68;;;8.80;70.90;;;;;;5013847;28;20052;-45
2022/02/21 20:09:12;;;;;;;19.88;4.88;;;8.80;71.10;;;;;;5013705;28;20044;-46
2022/02/21 20:11:39;;;;;;;25.42;5.88;;;8.80;71.50;;;;;;5013526;28;20099;-49
2022/02/21 20:14:06;;;;;;;22.10;4.70;;;8.70;71.80;;;;;;5013664;28;20076;-46
2022/02/21 20:16:33;;;;;;;25.13;5.10;;;8.80;72.00;;;;;;5014374;28;20045;-44
2022/02/21 20:18:59;;;;;;;21.23;4.28;;;8.70;72.30;;;;;;5013568;28;20037;-45
2022/02/21 20:21:26;;;;;;;21.25;4.88;;;8.70;72.30;;;;;;5013722;28;20046;-42
2022/02/21 20:23:53;;;;;;;27.30;5.32;;;8.70;72.60;;;;;;5013536;28;20050;-46
2022/02/21 20:26:21;;;;;;;20.23;4.65;;;8.70;73.40;;;;;;5013267;28;20117;-43
2022/02/21 20:28:48;;;;;;;23.92;5.57;;;8.70;73.00;;;;;;5013528;28;20065;-50
2022/02/21 20:31:15;;;;;;;21.23;4.97;;;8.60;73.60;;;;;;5018039;28;20104;-47
2022/02/21 20:33:42;;;;;;;18.27;5.25;;;8.60;73.50;;;;;;5013348;28;20034;-47
2022/02/21 20:36:09;;;;;;;24.88;5.72;;;8.60;73.60;;;;;;5016288;28;20042;-47
2022/02/21 20:38:36;;;;;;;20.70;4.15;;;8.60;73.80;;;;;;5007451;28;20045;-42
2022/02/21 20:41:03;;;;;;;21.38;4.45;;;8.50;74.20;;;;;;5009188;28;20038;-46
2022/02/21 20:43:30;;;;;;;24.48;4.93;;;8.50;74.70;;;;;;5006997;28;20042;-43
2022/02/21 20:45:57;;;;;;;21.58;5.45;;;8.40;74.90;;;;;;5013294;28;20408;-48
2022/02/21 20:48:23;;;;;;;28.90;4.85;;;8.40;75.10;;;;;;5017493;28;20122;-43
2022/02/21 20:50:50;;;;;;;22.90;4.15;;;8.40;75.10;;;;;;5013274;28;20093;-43
2022/02/21 20:53:17;;;;;;;19.63;5.10;;;8.30;75.30;;;;;;5017540;28;20037;-43
2022/02/21 20:55:44;;;;;;;22.23;5.07;;;8.30;75.40;;;;;;5013955;28;20045;-45
2022/02/21 20:58:10;;;;;;;20.17;4.70;;;8.30;75.60;;;;;;5013063;28;20531;-46
2022/02/21 21:00:37;;;;;;;25.13;5.03;;;8.20;75.60;;;;;;5012527;28;20041;-48
2022/02/21 21:03:05;;;;;;;17.48;4.13;;;8.20;76.10;;;;;;5013140;28;20054;-44
2022/02/21 21:05:32;;;;;;;21.58;4.72;;;8.20;76.40;;;;;;5015348;28;20129;-43
2022/02/21 21:07:59;;;;;;;23.42;4.80;;;8.10;76.70;;;;;;5014099;28;20054;-44
2022/02/21 21:10:25;;;;;;;25.05;5.45;;;8.10;76.70;;;;;;5012987;28;20046;-51
2022/02/21 21:12:57;;;;;;;22.40;5.07;;;8.00;77.30;;;;;;5013138;28;20038;-44